sensor_id;sensor_type;location;lat;lon;timestamp;temperature;humidity
19947;DHT22;10135;50.702;7.276;2023-04-25T05:00:35;10.30;59.30
19947;DHT22;10135;50.702;7.276;2023-04-25T05:02:36;10.30;59.20
19947;DHT22;10135;50.702;7.276;2023-04-25T05:04:37;10.30;59.20
19947;DHT22;10135;50.702;7.276;2023-04-25T05:06:38;10.30;59.20
19947;DHT22;10135;50.702;7.276;2023-04-25T05:08:38;10.30;59.20
19947;DHT22;10135;50.702;7.276;2023-04-25T05:10:40;10.30;59.20
19947;DHT22;10135;50.702;7.276;2023-04-25T05:12:40;10.30;59.20
19947;DHT22;10135;50.702;7.276;2023-04-25T05:14:41;10.30;59.20
19947;DHT22;10135;50.702;7.276;2023-04-25T05:16:42;10.30;59.20
19947;DHT22;10135;50.702;7.276;2023-04-25T05:18:43;10.30;59.20
19947;DHT22;10135;50.702;7.276;2023-04-25T05:20:44;10.30;59.20
19947;DHT22;10135;50.702;7.276;2023-04-25T05:22:45;10.30;59.30
19947;DHT22;10135;50.702;7.276;2023-04-25T05:24:46;10.30;59.30
19947;DHT22;10135;50.702;7.276;2023-04-25T05:26:46;10.40;59.40
19947;DHT22;10135;50.702;7.276;2023-04-25T05:28:47;10.40;59.50
19947;DHT22;10135;50.702;7.276;2023-04-25T05:30:48;10.40;59.50
19947;DHT22;10135;50.702;7.276;2023-04-25T05:32:48;10.40;59.50
19947;DHT22;10135;50.702;7.276;2023-04-25T05:34:49;10.40;59.50
19947;DHT22;10135;50.702;7.276;2023-04-25T05:36:50;10.50;59.50
19947;DHT22;10135;50.702;7.276;2023-04-25T05:38:50;10.50;59.60
19947;DHT22;10135;50.702;7.276;2023-04-25T05:40:51;10.50;59.50
19947;DHT22;10135;50.702;7.276;2023-04-25T05:42:52;10.60;59.60
19947;DHT22;10135;50.702;7.276;2023-04-25T05:44:52;10.60;59.60
19947;DHT22;10135;50.702;7.276;2023-04-25T05:46:53;10.60;59.60
19947;DHT22;10135;50.702;7.276;2023-04-25T05:48:54;10.70;59.60
19947;DHT22;10135;50.702;7.276;2023-04-25T05:50:54;10.70;59.60
19947;DHT22;10135;50.702;7.276;2023-04-25T05:52:55;10.80;59.70
19947;DHT22;10135;50.702;7.276;2023-04-25T05:54:56;10.80;59.70
19947;DHT22;10135;50.702;7.276;2023-04-25T05:56:57;10.90;59.80
19947;DHT22;10135;50.702;7.276;2023-04-25T05:58:58;11.00;59.70
19947;DHT22;10135;50.702;7.276;2023-04-25T06:00:58;11.00;59.60
19947;DHT22;10135;50.702;7.276;2023-04-25T06:02:59;11.10;59.60
19947;DHT22;10135;50.702;7.276;2023-04-25T06:05:00;11.10;59.50
19947;DHT22;10135;50.702;7.276;2023-04-25T06:07:03;11.20;59.50
19947;DHT22;10135;50.702;7.276;2023-04-25T06:09:04;11.20;59.40
19947;DHT22;10135;50.702;7.276;2023-04-25T06:11:04;11.30;59.40
19947;DHT22;10135;50.702;7.276;2023-04-25T06:13:05;11.30;59.30
19947;DHT22;10135;50.702;7.276;2023-04-25T06:15:07;11.20;59.20
19947;DHT22;10135;50.702;7.276;2023-04-25T06:17:07;11.20;59.20
19947;DHT22;10135;50.702;7.276;2023-04-25T06:19:08;11.20;59.20
19947;DHT22;10135;50.702;7.276;2023-04-25T06:21:09;11.20;59.30
19947;DHT22;10135;50.702;7.276;2023-04-25T06:23:10;11.20;59.30
19947;DHT22;10135;50.702;7.276;2023-04-25T06:25:10;11.20;59.40
19947;DHT22;10135;50.702;7.276;2023-04-25T06:27:11;11.20;59.40
19947;DHT22;10135;50.702;7.276;2023-04-25T06:29:11;11.20;59.40
19947;DHT22;10135;50.702;7.276;2023-04-25T06:31:12;11.20;59.40
19947;DHT22;10135;50.702;7.276;2023-04-25T06:33:13;11.20;59.50
19947;DHT22;10135;50.702;7.276;2023-04-25T06:35:13;11.20;59.50
19947;DHT22;10135;50.702;7.276;2023-04-25T06:37:14;11.20;59.50
19947;DHT22;10135;50.702;7.276;2023-04-25T06:39:15;11.20;59.50
19947;DHT22;10135;50.702;7.276;2023-04-25T06:41:15;11.30;59.50
19947;DHT22;10135;50.702;7.276;2023-04-25T06:43:16;11.30;59.50
19947;DHT22;10135;50.702;7.276;2023-04-25T06:45:17;11.30;59.40
19947;DHT22;10135;50.702;7.276;2023-04-25T06:47:17;11.30;59.50
19947;DHT22;10135;50.702;7.276;2023-04-25T06:49:18;11.30;59.40
19947;DHT22;10135;50.702;7.276;2023-04-25T06:51:18;11.40;59.50
19947;DHT22;10135;50.702;7.276;2023-04-25T06:53:19;11.40;59.70
19947;DHT22;10135;50.702;7.276;2023-04-25T06:55:20;11.50;59.60
19947;DHT22;10135;50.702;7.276;2023-04-25T06:57:20;11.60;59.60
19947;DHT22;10135;50.702;7.276;2023-04-25T06:59:21;11.70;59.50
19947;DHT22;10135;50.702;7.276;2023-04-25T07:01:22;11.70;59.40
19947;DHT22;10135;50.702;7.276;2023-04-25T07:03:22;11.80;59.50
19947;DHT22;10135;50.702;7.276;2023-04-25T07:05:24;11.90;59.60
19947;DHT22;10135;50.702;7.276;2023-04-25T07:07:25;12.00;59.50
19947;DHT22;10135;50.702;7.276;2023-04-25T07:09:26;12.00;59.30
19947;DHT22;10135;50.702;7.276;2023-04-25T07:11:26;12.10;59.30
19947;DHT22;10135;50.702;7.276;2023-04-25T07:13:27;12.20;59.30
19947;DHT22;10135;50.702;7.276;2023-04-25T07:15:27;12.20;59.10
19947;DHT22;10135;50.702;7.276;2023-04-25T07:17:28;12.30;59.20
19947;DHT22;10135;50.702;7.276;2023-04-25T07:19:29;12.40;59.50
19947;DHT22;10135;50.702;7.276;2023-04-25T07:21:30;12.60;59.80
19947;DHT22;10135;50.702;7.276;2023-04-25T07:23:31;12.80;59.80
19947;DHT22;10135;50.702;7.276;2023-04-25T07:25:32;13.00;59.50
19947;DHT22;10135;50.702;7.276;2023-04-25T07:27:33;13.10;59.10
19947;DHT22;10135;50.702;7.276;2023-04-25T07:29:33;13.10;58.70
19947;DHT22;10135;50.702;7.276;2023-04-25T07:31:37;13.20;58.70
19947;DHT22;10135;50.702;7.276;2023-04-25T07:33:38;13.30;58.80
19947;DHT22;10135;50.702;7.276;2023-04-25T07:35:38;13.40;58.70
19947;DHT22;10135;50.702;7.276;2023-04-25T07:37:39;13.40;58.40
19947;DHT22;10135;50.702;7.276;2023-04-25T07:39:40;13.50;58.20
19947;DHT22;10135;50.702;7.276;2023-04-25T07:41:40;13.50;58.10
19947;DHT22;10135;50.702;7.276;2023-04-25T07:43:41;13.50;58.20
19947;DHT22;10135;50.702;7.276;2023-04-25T07:45:43;13.50;58.10
19947;DHT22;10135;50.702;7.276;2023-04-25T07:47:44;13.50;58.00
19947;DHT22;10135;50.702;7.276;2023-04-25T07:49:45;13.60;58.00
19947;DHT22;10135;50.702;7.276;2023-04-25T07:51:46;13.60;57.90
19947;DHT22;10135;50.702;7.276;2023-04-25T07:53:47;13.60;57.70
19947;DHT22;10135;50.702;7.276;2023-04-25T07:55:48;13.50;57.50
19947;DHT22;10135;50.702;7.276;2023-04-25T07:57:48;13.50;57.50
19947;DHT22;10135;50.702;7.276;2023-04-25T07:59:49;13.40;57.40
19947;DHT22;10135;50.702;7.276;2023-04-25T08:01:50;13.40;57.30
19947;DHT22;10135;50.702;7.276;2023-04-25T08:03:51;13.30;57.30
19947;DHT22;10135;50.702;7.276;2023-04-25T08:05:51;13.20;57.40
19947;DHT22;10135;50.702;7.276;2023-04-25T08:07:52;13.20;57.30
19947;DHT22;10135;50.702;7.276;2023-04-25T08:09:53;13.20;57.40
19947;DHT22;10135;50.702;7.276;2023-04-25T08:11:54;13.20;57.60
19947;DHT22;10135;50.702;7.276;2023-04-25T08:13:55;13.20;57.80
19947;DHT22;10135;50.702;7.276;2023-04-25T08:15:55;13.30;57.80
19947;DHT22;10135;50.702;7.276;2023-04-25T08:17:56;13.30;57.50
19947;DHT22;10135;50.702;7.276;2023-04-25T08:19:56;13.40;57.40
19947;DHT22;10135;50.702;7.276;2023-04-25T08:21:57;13.40;57.20
19947;DHT22;10135;50.702;7.276;2023-04-25T08:23:58;13.30;57.00
19947;DHT22;10135;50.702;7.276;2023-04-25T08:25:58;13.30;57.00
19947;DHT22;10135;50.702;7.276;2023-04-25T08:27:59;13.30;56.90
19947;DHT22;10135;50.702;7.276;2023-04-25T08:30:03;13.20;56.90
19947;DHT22;10135;50.702;7.276;2023-04-25T08:32:04;13.20;56.90
19947;DHT22;10135;50.702;7.276;2023-04-25T08:34:05;13.10;56.80
19947;DHT22;10135;50.702;7.276;2023-04-25T08:36:06;13.10;56.90
19947;DHT22;10135;50.702;7.276;2023-04-25T08:38:07;13.00;56.80
19947;DHT22;10135;50.702;7.276;2023-04-25T08:40:14;13.00;56.80
19947;DHT22;10135;50.702;7.276;2023-04-25T08:42:15;12.90;56.60
19947;DHT22;10135;50.702;7.276;2023-04-25T08:44:16;12.90;56.70
19947;DHT22;10135;50.702;7.276;2023-04-25T08:46:20;12.90;56.70
19947;DHT22;10135;50.702;7.276;2023-04-25T08:48:21;12.80;56.50
19947;DHT22;10135;50.702;7.276;2023-04-25T08:50:24;12.80;56.60
19947;DHT22;10135;50.702;7.276;2023-04-25T08:52:28;12.80;56.60
19947;DHT22;10135;50.702;7.276;2023-04-25T08:54:32;12.80;56.60
19947;DHT22;10135;50.702;7.276;2023-04-25T08:56:34;12.80;56.60
19947;DHT22;10135;50.702;7.276;2023-04-25T08:58:36;12.80;56.60
19947;DHT22;10135;50.702;7.276;2023-04-25T09:00:37;12.80;56.70
19947;DHT22;10135;50.702;7.276;2023-04-25T09:02:39;12.80;56.70
19947;DHT22;10135;50.702;7.276;2023-04-25T09:04:42;12.80;56.60
19947;DHT22;10135;50.702;7.276;2023-04-25T09:06:44;12.80;56.60
19947;DHT22;10135;50.702;7.276;2023-04-25T09:08:44;12.90;56.70
19947;DHT22;10135;50.702;7.276;2023-04-25T09:10:45;12.90;56.70
19947;DHT22;10135;50.702;7.276;2023-04-25T09:13:08;12.90;56.70
19947;DHT22;10135;50.702;7.276;2023-04-25T09:15:13;13.00;56.20
19947;DHT22;10135;50.702;7.276;2023-04-25T09:17:13;13.00;56.80
19947;DHT22;10135;50.702;7.276;2023-04-25T09:19:21;13.10;56.70
19947;DHT22;10135;50.702;7.276;2023-04-25T09:21:23;13.20;56.40
19947;DHT22;10135;50.702;7.276;2023-04-25T09:23:24;13.20;56.70
19947;DHT22;10135;50.702;7.276;2023-04-25T09:25:25;13.30;56.70
19947;DHT22;10135;50.702;7.276;2023-04-25T09:27:25;13.40;56.60
19947;DHT22;10135;50.702;7.276;2023-04-25T09:29:37;13.50;56.40
19947;DHT22;10135;50.702;7.276;2023-04-25T09:31:38;13.60;55.80
19947;DHT22;10135;50.702;7.276;2023-04-25T09:33:40;13.70;56.30
19947;DHT22;10135;50.702;7.276;2023-04-25T09:35:43;13.80;56.00
19947;DHT22;10135;50.702;7.276;2023-04-25T09:37:45;13.80;55.80
19947;DHT22;10135;50.702;7.276;2023-04-25T09:39:48;13.90;55.60
19947;DHT22;10135;50.702;7.276;2023-04-25T09:41:53;13.80;55.40
19947;DHT22;10135;50.702;7.276;2023-04-25T09:43:57;13.80;55.10
19947;DHT22;10135;50.702;7.276;2023-04-25T09:45:59;13.80;55.80
19947;DHT22;10135;50.702;7.276;2023-04-25T09:48:03;13.80;55.30
19947;DHT22;10135;50.702;7.276;2023-04-25T09:50:17;13.70;54.90
19947;DHT22;10135;50.702;7.276;2023-04-25T09:52:21;13.60;54.60
19947;DHT22;10135;50.702;7.276;2023-04-25T09:54:26;13.60;55.00
19947;DHT22;10135;50.702;7.276;2023-04-25T09:56:27;13.50;54.80
19947;DHT22;10135;50.702;7.276;2023-04-25T09:58:37;13.40;55.00
19947;DHT22;10135;50.702;7.276;2023-04-25T10:00:40;13.30;55.00
19947;DHT22;10135;50.702;7.276;2023-04-25T10:02:42;13.30;55.00
19947;DHT22;10135;50.702;7.276;2023-04-25T10:04:54;13.20;55.10
19947;DHT22;10135;50.702;7.276;2023-04-25T10:06:56;13.20;55.00
19947;DHT22;10135;50.702;7.276;2023-04-25T10:08:58;13.20;55.20
19947;DHT22;10135;50.702;7.276;2023-04-25T10:11:04;13.20;55.20
19947;DHT22;10135;50.702;7.276;2023-04-25T10:13:08;13.20;55.10
19947;DHT22;10135;50.702;7.276;2023-04-25T10:15:09;13.20;55.30
19947;DHT22;10135;50.702;7.276;2023-04-25T10:17:11;13.20;55.30
19947;DHT22;10135;50.702;7.276;2023-04-25T10:19:12;13.20;55.20
19947;DHT22;10135;50.702;7.276;2023-04-25T10:21:14;13.20;55.80
19947;DHT22;10135;50.702;7.276;2023-04-25T10:23:16;13.20;55.10
19947;DHT22;10135;50.702;7.276;2023-04-25T10:25:18;13.30;55.10
19947;DHT22;10135;50.702;7.276;2023-04-25T10:27:18;13.20;55.00
19947;DHT22;10135;50.702;7.276;2023-04-25T10:29:24;13.20;55.00
19947;DHT22;10135;50.702;7.276;2023-04-25T10:31:25;13.20;54.90
19947;DHT22;10135;50.702;7.276;2023-04-25T10:33:44;13.20;55.00
19947;DHT22;10135;50.702;7.276;2023-04-25T10:35:45;13.20;54.40
19947;DHT22;10135;50.702;7.276;2023-04-25T10:38:05;13.20;55.00
19947;DHT22;10135;50.702;7.276;2023-04-25T10:40:21;13.20;54.60
19947;DHT22;10135;50.702;7.276;2023-04-25T10:42:23;13.20;54.80
19947;DHT22;10135;50.702;7.276;2023-04-25T10:44:31;13.20;55.10
19947;DHT22;10135;50.702;7.276;2023-04-25T10:46:33;13.30;54.90
19947;DHT22;10135;50.702;7.276;2023-04-25T10:48:35;13.30;55.10
19947;DHT22;10135;50.702;7.276;2023-04-25T10:50:38;13.30;55.10
19947;DHT22;10135;50.702;7.276;2023-04-25T10:52:40;13.30;54.90
19947;DHT22;10135;50.702;7.276;2023-04-25T10:55:02;13.40;55.10
19947;DHT22;10135;50.702;7.276;2023-04-25T10:57:04;13.50;54.50
19947;DHT22;10135;50.702;7.276;2023-04-25T11:01:07;13.50;54.60
19947;DHT22;10135;50.702;7.276;2023-04-25T11:03:08;13.50;54.50
19947;DHT22;10135;50.702;7.276;2023-04-25T11:05:09;13.50;54.30
19947;DHT22;10135;50.702;7.276;2023-04-25T11:09:53;13.50;53.50
19947;DHT22;10135;50.702;7.276;2023-04-25T11:11:55;13.40;54.70
19947;DHT22;10135;50.702;7.276;2023-04-25T11:13:56;13.40;54.10
19947;DHT22;10135;50.702;7.276;2023-04-25T11:15:56;13.40;54.00
19947;DHT22;10135;50.702;7.276;2023-04-25T11:17:57;13.30;54.00
19947;DHT22;10135;50.702;7.276;2023-04-25T11:19:58;13.20;54.00
19947;DHT22;10135;50.702;7.276;2023-04-25T11:22:01;13.20;53.90
19947;DHT22;10135;50.702;7.276;2023-04-25T11:24:02;13.10;53.90
19947;DHT22;10135;50.702;7.276;2023-04-25T11:26:04;13.10;54.00
19947;DHT22;10135;50.702;7.276;2023-04-25T11:28:05;13.10;54.00
19947;DHT22;10135;50.702;7.276;2023-04-25T11:30:13;13.10;54.00
19947;DHT22;10135;50.702;7.276;2023-04-25T11:32:17;13.10;53.80
19947;DHT22;10135;50.702;7.276;2023-04-25T11:34:19;13.10;54.10
19947;DHT22;10135;50.702;7.276;2023-04-25T11:36:20;13.10;54.10
19947;DHT22;10135;50.702;7.276;2023-04-25T11:38:20;13.10;54.10
19947;DHT22;10135;50.702;7.276;2023-04-25T11:40:21;13.20;54.30
19947;DHT22;10135;50.702;7.276;2023-04-25T11:42:22;13.20;54.20
19947;DHT22;10135;50.702;7.276;2023-04-25T11:44:23;13.20;54.10
19947;DHT22;10135;50.702;7.276;2023-04-25T11:46:24;13.30;54.10
19947;DHT22;10135;50.702;7.276;2023-04-25T11:48:24;13.30;54.10
19947;DHT22;10135;50.702;7.276;2023-04-25T11:50:28;13.40;54.20
19947;DHT22;10135;50.702;7.276;2023-04-25T11:52:44;13.50;54.20
19947;DHT22;10135;50.702;7.276;2023-04-25T11:54:46;13.60;53.90
19947;DHT22;10135;50.702;7.276;2023-04-25T11:56:47;13.70;54.30
19947;DHT22;10135;50.702;7.276;2023-04-25T11:59:04;13.80;54.10
19947;DHT22;10135;50.702;7.276;2023-04-25T12:01:06;13.90;53.30
19947;DHT22;10135;50.702;7.276;2023-04-25T12:03:09;14.00;53.80
19947;DHT22;10135;50.702;7.276;2023-04-25T12:05:11;13.90;53.40
19947;DHT22;10135;50.702;7.276;2023-04-25T12:07:12;14.00;53.40
19947;DHT22;10135;50.702;7.276;2023-04-25T12:09:15;13.90;53.30
19947;DHT22;10135;50.702;7.276;2023-04-25T12:11:21;13.90;53.20
19947;DHT22;10135;50.702;7.276;2023-04-25T12:13:24;13.80;53.00
19947;DHT22;10135;50.702;7.276;2023-04-25T12:15:26;13.80;53.20
19947;DHT22;10135;50.702;7.276;2023-04-25T12:17:28;13.70;53.20
19947;DHT22;10135;50.702;7.276;2023-04-25T12:19:33;13.70;53.10
19947;DHT22;10135;50.702;7.276;2023-04-25T12:21:35;13.70;53.50
19947;DHT22;10135;50.702;7.276;2023-04-25T12:23:38;13.60;53.10
19947;DHT22;10135;50.702;7.276;2023-04-25T12:25:42;13.50;52.90
19947;DHT22;10135;50.702;7.276;2023-04-25T12:27:43;13.50;53.60
19947;DHT22;10135;50.702;7.276;2023-04-25T12:29:51;13.50;53.10
19947;DHT22;10135;50.702;7.276;2023-04-25T12:31:54;13.40;52.60
19947;DHT22;10135;50.702;7.276;2023-04-25T12:33:56;13.40;53.00
19947;DHT22;10135;50.702;7.276;2023-04-25T12:35:58;13.40;53.10
19947;DHT22;10135;50.702;7.276;2023-04-25T12:37:59;13.40;53.10
19947;DHT22;10135;50.702;7.276;2023-04-25T12:40:00;13.40;53.00
19947;DHT22;10135;50.702;7.276;2023-04-25T12:42:00;13.40;53.00
19947;DHT22;10135;50.702;7.276;2023-04-25T12:44:01;13.40;53.00
19947;DHT22;10135;50.702;7.276;2023-04-25T12:46:02;13.40;52.90
19947;DHT22;10135;50.702;7.276;2023-04-25T12:48:03;13.50;52.90
19947;DHT22;10135;50.702;7.276;2023-04-25T12:50:04;13.50;52.70
19947;DHT22;10135;50.702;7.276;2023-04-25T12:52:05;13.50;52.70
19947;DHT22;10135;50.702;7.276;2023-04-25T12:54:06;13.50;52.70
19947;DHT22;10135;50.702;7.276;2023-04-25T12:56:10;13.60;52.70
19947;DHT22;10135;50.702;7.276;2023-04-25T12:58:11;13.60;52.60
19947;DHT22;10135;50.702;7.276;2023-04-25T13:00:13;13.60;52.60
19947;DHT22;10135;50.702;7.276;2023-04-25T13:02:15;13.60;52.60
19947;DHT22;10135;50.702;7.276;2023-04-25T13:04:15;13.70;52.60
19947;DHT22;10135;50.702;7.276;2023-04-25T13:06:17;13.70;53.20
19947;DHT22;10135;50.702;7.276;2023-04-25T13:08:19;13.80;52.50
19947;DHT22;10135;50.702;7.276;2023-04-25T13:10:19;13.90;52.70
19947;DHT22;10135;50.702;7.276;2023-04-25T13:12:20;13.90;52.70
19947;DHT22;10135;50.702;7.276;2023-04-25T13:14:21;14.10;52.70
19947;DHT22;10135;50.702;7.276;2023-04-25T13:16:21;14.20;52.70
19947;DHT22;10135;50.702;7.276;2023-04-25T13:18:22;14.30;52.60
19947;DHT22;10135;50.702;7.276;2023-04-25T13:20:26;14.40;52.60
19947;DHT22;10135;50.702;7.276;2023-04-25T13:22:27;14.50;52.50
19947;DHT22;10135;50.702;7.276;2023-04-25T13:24:28;14.60;52.40
19947;DHT22;10135;50.702;7.276;2023-04-25T13:26:28;14.70;52.20
19947;DHT22;10135;50.702;7.276;2023-04-25T13:28:29;14.80;52.00
19947;DHT22;10135;50.702;7.276;2023-04-25T13:30:30;14.80;51.90
19947;DHT22;10135;50.702;7.276;2023-04-25T13:32:30;14.80;51.70
19947;DHT22;10135;50.702;7.276;2023-04-25T13:34:31;14.80;51.60
19947;DHT22;10135;50.702;7.276;2023-04-25T13:36:32;14.80;51.60
19947;DHT22;10135;50.702;7.276;2023-04-25T13:38:32;14.80;51.60
19947;DHT22;10135;50.702;7.276;2023-04-25T13:40:33;14.90;51.70
19947;DHT22;10135;50.702;7.276;2023-04-25T13:42:34;14.90;51.50
19947;DHT22;10135;50.702;7.276;2023-04-25T13:44:35;14.90;51.30
19947;DHT22;10135;50.702;7.276;2023-04-25T13:46:35;15.00;51.20
19947;DHT22;10135;50.702;7.276;2023-04-25T13:48:37;14.90;50.90
19947;DHT22;10135;50.702;7.276;2023-04-25T13:50:38;15.00;50.90
19947;DHT22;10135;50.702;7.276;2023-04-25T13:52:39;14.90;50.80
19947;DHT22;10135;50.702;7.276;2023-04-25T13:54:40;14.90;50.70
19947;DHT22;10135;50.702;7.276;2023-04-25T13:56:41;14.80;50.60
19947;DHT22;10135;50.702;7.276;2023-04-25T13:58:42;14.80;50.60
19947;DHT22;10135;50.702;7.276;2023-04-25T14:00:43;14.70;50.50
19947;DHT22;10135;50.702;7.276;2023-04-25T14:02:46;14.70;50.50
19947;DHT22;10135;50.702;7.276;2023-04-25T14:04:46;14.60;50.50
19947;DHT22;10135;50.702;7.276;2023-04-25T14:06:47;14.50;50.40
19947;DHT22;10135;50.702;7.276;2023-04-25T14:08:49;14.50;50.40
19947;DHT22;10135;50.702;7.276;2023-04-25T14:10:50;14.40;50.40
19947;DHT22;10135;50.702;7.276;2023-04-25T14:12:51;14.30;50.40
19947;DHT22;10135;50.702;7.276;2023-04-25T14:14:52;14.30;50.50
19947;DHT22;10135;50.702;7.276;2023-04-25T14:16:55;14.30;50.50
19947;DHT22;10135;50.702;7.276;2023-04-25T14:18:58;14.30;50.50
19947;DHT22;10135;50.702;7.276;2023-04-25T14:20:59;14.20;50.40
19947;DHT22;10135;50.702;7.276;2023-04-25T14:23:00;14.20;50.40
19947;DHT22;10135;50.702;7.276;2023-04-25T14:25:00;14.20;50.40
19947;DHT22;10135;50.702;7.276;2023-04-25T14:27:01;14.20;50.50
19947;DHT22;10135;50.702;7.276;2023-04-25T14:29:07;14.20;50.50
19947;DHT22;10135;50.702;7.276;2023-04-25T14:31:08;14.20;50.40
19947;DHT22;10135;50.702;7.276;2023-04-25T14:33:09;14.20;50.50
19947;DHT22;10135;50.702;7.276;2023-04-25T14:35:10;14.20;50.50
19947;DHT22;10135;50.702;7.276;2023-04-25T14:37:11;14.30;50.50
19947;DHT22;10135;50.702;7.276;2023-04-25T14:39:12;14.30;50.40
19947;DHT22;10135;50.702;7.276;2023-04-25T14:41:14;14.30;50.30
19947;DHT22;10135;50.702;7.276;2023-04-25T14:43:15;14.30;50.30
19947;DHT22;10135;50.702;7.276;2023-04-25T14:45:15;14.30;50.30
19947;DHT22;10135;50.702;7.276;2023-04-25T14:47:17;14.30;50.20
19947;DHT22;10135;50.702;7.276;2023-04-25T14:49:17;14.30;50.00
19947;DHT22;10135;50.702;7.276;2023-04-25T14:51:18;14.30;49.90
19947;DHT22;10135;50.702;7.276;2023-04-25T14:53:19;14.30;49.90
19947;DHT22;10135;50.702;7.276;2023-04-25T14:55:19;14.30;49.80
19947;DHT22;10135;50.702;7.276;2023-04-25T14:57:20;14.30;49.80
19947;DHT22;10135;50.702;7.276;2023-04-25T14:59:21;14.30;49.80
19947;DHT22;10135;50.702;7.276;2023-04-25T15:01:22;14.30;49.80
19947;DHT22;10135;50.702;7.276;2023-04-25T15:03:23;14.30;49.80
19947;DHT22;10135;50.702;7.276;2023-04-25T15:05:24;14.30;49.70
19947;DHT22;10135;50.702;7.276;2023-04-25T15:07:25;14.30;49.70
19947;DHT22;10135;50.702;7.276;2023-04-25T15:09:26;14.30;49.70
19947;DHT22;10135;50.702;7.276;2023-04-25T15:11:27;14.30;49.60
19947;DHT22;10135;50.702;7.276;2023-04-25T15:13:28;14.30;49.60
19947;DHT22;10135;50.702;7.276;2023-04-25T15:15:28;14.30;49.60
19947;DHT22;10135;50.702;7.276;2023-04-25T15:17:29;14.30;49.60
19947;DHT22;10135;50.702;7.276;2023-04-25T15:19:31;14.40;49.70
19947;DHT22;10135;50.702;7.276;2023-04-25T15:21:31;14.50;49.80
19947;DHT22;10135;50.702;7.276;2023-04-25T15:23:32;14.50;49.70
19947;DHT22;10135;50.702;7.276;2023-04-25T15:25:33;14.50;49.60
19947;DHT22;10135;50.702;7.276;2023-04-25T15:27:34;14.60;49.50
19947;DHT22;10135;50.702;7.276;2023-04-25T15:29:40;14.60;49.40
19947;DHT22;10135;50.702;7.276;2023-04-25T15:31:40;14.60;49.40
19947;DHT22;10135;50.702;7.276;2023-04-25T15:33:41;14.60;49.30
19947;DHT22;10135;50.702;7.276;2023-04-25T15:35:42;14.60;49.10
19947;DHT22;10135;50.702;7.276;2023-04-25T15:37:42;14.60;49.10
19947;DHT22;10135;50.702;7.276;2023-04-25T15:39:44;14.60;49.00
19947;DHT22;10135;50.702;7.276;2023-04-25T15:41:44;14.60;48.90
19947;DHT22;10135;50.702;7.276;2023-04-25T15:43:47;14.60;49.00
19947;DHT22;10135;50.702;7.276;2023-04-25T15:45:48;14.50;48.90
19947;DHT22;10135;50.702;7.276;2023-04-25T15:47:48;14.50;48.90
19947;DHT22;10135;50.702;7.276;2023-04-25T15:49:50;14.50;48.90
19947;DHT22;10135;50.702;7.276;2023-04-25T15:51:51;14.50;48.80
19947;DHT22;10135;50.702;7.276;2023-04-25T15:53:52;14.50;48.80
19947;DHT22;10135;50.702;7.276;2023-04-25T15:55:52;14.50;48.80
19947;DHT22;10135;50.702;7.276;2023-04-25T15:57:53;14.50;48.80
19947;DHT22;10135;50.702;7.276;2023-04-25T15:59:54;14.50;48.70
19947;DHT22;10135;50.702;7.276;2023-04-25T16:01:55;14.40;48.50
19947;DHT22;10135;50.702;7.276;2023-04-25T16:03:56;14.40;48.50
19947;DHT22;10135;50.702;7.276;2023-04-25T16:05:57;14.40;48.40
19947;DHT22;10135;50.702;7.276;2023-04-25T16:07:58;14.40;48.40
19947;DHT22;10135;50.702;7.276;2023-04-25T16:10:00;14.40;48.30
19947;DHT22;10135;50.702;7.276;2023-04-25T16:12:00;14.40;48.20
19947;DHT22;10135;50.702;7.276;2023-04-25T16:14:01;14.40;48.20
19947;DHT22;10135;50.702;7.276;2023-04-25T16:16:02;14.40;48.10
19947;DHT22;10135;50.702;7.276;2023-04-25T16:18:03;14.40;48.00
19947;DHT22;10135;50.702;7.276;2023-04-25T16:20:04;14.30;47.90
19947;DHT22;10135;50.702;7.276;2023-04-25T16:22:09;14.30;48.00
19947;DHT22;10135;50.702;7.276;2023-04-25T16:24:12;14.30;48.00
19947;DHT22;10135;50.702;7.276;2023-04-25T16:26:13;14.30;48.00
19947;DHT22;10135;50.702;7.276;2023-04-25T16:28:13;14.20;47.90
19947;DHT22;10135;50.702;7.276;2023-04-25T16:30:14;14.20;47.80
19947;DHT22;10135;50.702;7.276;2023-04-25T16:32:15;14.20;47.90
19947;DHT22;10135;50.702;7.276;2023-04-25T16:34:16;14.10;47.90
19947;DHT22;10135;50.702;7.276;2023-04-25T16:36:17;14.10;47.90
19947;DHT22;10135;50.702;7.276;2023-04-25T16:38:18;14.00;47.80
19947;DHT22;10135;50.702;7.276;2023-04-25T16:40:19;14.00;47.80
19947;DHT22;10135;50.702;7.276;2023-04-25T16:42:20;13.90;47.70
19947;DHT22;10135;50.702;7.276;2023-04-25T16:44:20;13.90;47.70
19947;DHT22;10135;50.702;7.276;2023-04-25T16:46:21;13.80;47.70
19947;DHT22;10135;50.702;7.276;2023-04-25T16:48:23;13.80;47.70
19947;DHT22;10135;50.702;7.276;2023-04-25T16:50:23;13.70;47.70
19947;DHT22;10135;50.702;7.276;2023-04-25T16:52:24;13.70;47.80
19947;DHT22;10135;50.702;7.276;2023-04-25T16:54:25;13.60;47.80
19947;DHT22;10135;50.702;7.276;2023-04-25T16:56:25;13.60;47.80
19947;DHT22;10135;50.702;7.276;2023-04-25T16:58:26;13.60;47.80
19947;DHT22;10135;50.702;7.276;2023-04-25T17:00:28;13.60;47.80
19947;DHT22;10135;50.702;7.276;2023-04-25T17:02:28;13.50;47.80
19947;DHT22;10135;50.702;7.276;2023-04-25T17:04:29;13.50;47.90
19947;DHT22;10135;50.702;7.276;2023-04-25T17:06:30;13.50;47.80
19947;DHT22;10135;50.702;7.276;2023-04-25T17:08:31;13.50;47.90
19947;DHT22;10135;50.702;7.276;2023-04-25T17:10:32;13.40;47.80
19947;DHT22;10135;50.702;7.276;2023-04-25T17:12:33;13.40;47.80
19947;DHT22;10135;50.702;7.276;2023-04-25T17:14:33;13.40;47.80
19947;DHT22;10135;50.702;7.276;2023-04-25T17:16:36;13.40;47.80
19947;DHT22;10135;50.702;7.276;2023-04-25T17:18:38;13.40;47.80
19947;DHT22;10135;50.702;7.276;2023-04-25T17:20:38;13.30;47.70
19947;DHT22;10135;50.702;7.276;2023-04-25T17:22:39;13.30;47.70
19947;DHT22;10135;50.702;7.276;2023-04-25T17:24:40;13.30;47.70
19947;DHT22;10135;50.702;7.276;2023-04-25T17:26:40;13.30;47.60
19947;DHT22;10135;50.702;7.276;2023-04-25T17:28:41;13.30;47.60
19947;DHT22;10135;50.702;7.276;2023-04-25T17:30:44;13.30;47.60
19947;DHT22;10135;50.702;7.276;2023-04-25T17:32:45;13.20;47.60
19947;DHT22;10135;50.702;7.276;2023-04-25T17:34:45;13.20;47.50
19947;DHT22;10135;50.702;7.276;2023-04-25T17:36:47;13.20;47.50
19947;DHT22;10135;50.702;7.276;2023-04-25T17:38:48;13.20;47.50
19947;DHT22;10135;50.702;7.276;2023-04-25T17:40:48;13.20;47.50
19947;DHT22;10135;50.702;7.276;2023-04-25T17:42:49;13.10;47.50
19947;DHT22;10135;50.702;7.276;2023-04-25T17:44:50;13.10;47.50
19947;DHT22;10135;50.702;7.276;2023-04-25T17:46:51;13.10;47.50
19947;DHT22;10135;50.702;7.276;2023-04-25T17:48:52;13.00;47.40
19947;DHT22;10135;50.702;7.276;2023-04-25T17:50:52;13.00;47.40
19947;DHT22;10135;50.702;7.276;2023-04-25T17:52:53;13.00;47.50